createdAt,value
2023-03-13T00:01:28.505Z,3.65
2023-03-13T00:03:46.558Z,3.92
2023-03-13T00:06:03.547Z,3.83
2023-03-13T00:08:20.590Z,4.32
2023-03-13T00:10:37.829Z,3.95
2023-03-13T00:12:54.888Z,3.53
2023-03-13T00:15:11.931Z,3.53
2023-03-13T00:17:29.789Z,3.00
2023-03-13T00:19:47.724Z,3.42
2023-03-13T00:22:04.784Z,3.67
2023-03-13T00:24:22.080Z,3.88
2023-03-13T00:26:39.050Z,3.58
2023-03-13T00:28:55.985Z,4.28
2023-03-13T00:31:12.922Z,3.78
2023-03-13T00:33:29.961Z,3.50
2023-03-13T00:35:46.896Z,3.88
2023-03-13T00:38:03.963Z,3.72
2023-03-13T00:40:21.251Z,3.00
2023-03-13T00:42:38.232Z,3.88
2023-03-13T00:44:55.217Z,3.17
2023-03-13T00:47:12.252Z,3.83
2023-03-13T00:49:29.555Z,3.30
2023-03-13T00:51:46.583Z,3.17
2023-03-13T00:54:04.580Z,3.08
2023-03-13T00:56:21.626Z,3.30
2023-03-13T00:58:38.878Z,3.33
2023-03-13T01:00:56.057Z,2.85
2023-03-13T01:03:13.207Z,2.92
2023-03-13T01:05:30.211Z,3.05
2023-03-13T01:07:47.496Z,3.22
2023-03-13T01:10:04.500Z,3.95
2023-03-13T01:12:21.845Z,4.00
2023-03-13T01:14:39.083Z,3.28
2023-03-13T01:16:56.012Z,3.70
2023-03-13T01:19:13.470Z,3.08
2023-03-13T01:21:30.682Z,3.50
2023-03-13T01:23:48.064Z,3.78
2023-03-13T01:26:05.077Z,3.83
2023-03-13T01:28:22.003Z,3.38
2023-03-13T01:30:38.991Z,3.35
2023-03-13T01:32:56.034Z,3.05
2023-03-13T01:35:13.403Z,3.33
2023-03-13T01:37:30.326Z,3.03
2023-03-13T01:39:47.270Z,3.63
2023-03-13T01:42:04.220Z,3.80
2023-03-13T01:44:22.094Z,3.53
2023-03-13T01:46:39.032Z,3.67
2023-03-13T01:48:55.933Z,2.67
2023-03-13T01:51:12.822Z,3.38
2023-03-13T01:53:29.761Z,3.22
2023-03-13T01:55:46.639Z,3.45
2023-03-13T01:58:03.527Z,3.42
2023-03-13T02:00:20.501Z,3.25
2023-03-13T02:02:37.459Z,3.60
2023-03-13T02:04:54.678Z,3.35
2023-03-13T02:07:12.704Z,3.38
2023-03-13T02:09:29.705Z,3.10
2023-03-13T02:11:46.693Z,3.30
2023-03-13T02:14:03.916Z,3.17
2023-03-13T02:16:20.885Z,3.47
2023-03-13T02:18:37.837Z,3.50
2023-03-13T02:20:54.766Z,4.00
2023-03-13T02:23:11.612Z,4.03
2023-03-13T02:25:28.553Z,3.63
2023-03-13T02:27:45.572Z,4.07
2023-03-13T02:30:02.579Z,3.70
2023-03-13T02:32:19.655Z,3.83
2023-03-13T02:34:36.664Z,4.20
2023-03-13T02:36:53.544Z,3.75
2023-03-13T02:39:10.459Z,3.60
2023-03-13T02:41:27.463Z,2.83
2023-03-13T02:43:44.401Z,3.15
2023-03-13T02:46:01.643Z,2.80
2023-03-13T02:48:18.598Z,2.90
2023-03-13T02:50:35.861Z,2.63
2023-03-13T02:52:53.056Z,3.13
2023-03-13T02:55:11.031Z,3.15
2023-03-13T02:57:28.303Z,2.40
2023-03-13T02:59:45.377Z,2.28
2023-03-13T03:02:02.256Z,1.92
2023-03-13T03:04:19.374Z,2.00
2023-03-13T03:06:36.347Z,1.67
2023-03-13T03:08:53.205Z,1.65
2023-03-13T03:11:10.426Z,1.90
2023-03-13T03:13:27.754Z,1.50
2023-03-13T03:15:44.639Z,1.42
2023-03-13T03:18:01.550Z,1.50
2023-03-13T03:20:18.590Z,1.70
2023-03-13T03:22:35.601Z,1.23
2023-03-13T03:24:52.838Z,1.27
2023-03-13T03:27:09.878Z,1.33
2023-03-13T03:29:26.902Z,1.30
2023-03-13T03:31:44.019Z,1.23
2023-03-13T03:34:02.375Z,1.25
2023-03-13T03:36:20.283Z,1.27
2023-03-13T03:38:37.204Z,1.25
2023-03-13T03:40:54.067Z,1.20
2023-03-13T03:43:11.016Z,1.30
2023-03-13T03:45:28.119Z,1.30
2023-03-13T03:47:45.132Z,1.33
2023-03-13T03:50:02.127Z,1.27
2023-03-13T03:52:19.978Z,1.40
2023-03-13T03:54:36.955Z,1.40
2023-03-13T03:56:53.958Z,1.67
2023-03-13T03:59:10.830Z,1.83
2023-03-13T04:01:27.765Z,2.00
2023-03-13T04:03:44.856Z,1.73
2023-03-13T04:06:01.936Z,2.20
2023-03-13T04:08:18.877Z,2.40
2023-03-13T04:10:35.912Z,2.33
2023-03-13T04:12:53.945Z,2.40
2023-03-13T04:15:11.207Z,2.70
2023-03-13T04:17:28.120Z,2.75
2023-03-13T04:19:45.152Z,3.03
2023-03-13T04:22:02.140Z,2.92
2023-03-13T04:24:19.058Z,3.00
2023-03-13T04:26:36.053Z,3.28
2023-03-13T04:28:52.995Z,3.13
2023-03-13T04:31:10.336Z,2.90
2023-03-13T04:33:27.239Z,3.00
2023-03-13T04:35:44.614Z,3.22
2023-03-13T04:38:01.763Z,3.08
2023-03-13T04:40:19.080Z,3.08
2023-03-13T04:42:36.096Z,2.90
2023-03-13T04:44:52.985Z,3.00
2023-03-13T04:47:10.061Z,3.00
2023-03-13T04:49:28.304Z,3.15
2023-03-13T04:51:45.343Z,3.05
2023-03-13T04:59:00.864Z,3.00
2023-03-13T05:01:18.121Z,3.17
2023-03-13T05:03:35.103Z,2.78
2023-03-13T05:05:52.060Z,3.50
2023-03-13T05:08:08.989Z,3.58
2023-03-13T05:10:25.957Z,3.85
2023-03-13T05:12:42.855Z,3.65
2023-03-13T05:14:59.730Z,4.07
2023-03-13T05:17:16.721Z,4.20
2023-03-13T05:19:33.754Z,4.13
2023-03-13T05:21:50.804Z,4.75
2023-03-13T05:24:07.863Z,4.90
2023-03-13T05:26:25.106Z,4.63
2023-03-13T05:28:42.458Z,4.70
2023-03-13T05:30:59.743Z,4.80
2023-03-13T05:33:17.030Z,3.67
2023-03-13T05:35:33.955Z,4.10
2023-03-13T05:37:50.912Z,3.83
2023-03-13T05:40:07.904Z,4.00
2023-03-13T05:42:25.001Z,3.90
2023-03-13T05:44:41.988Z,3.60
2023-03-13T05:46:59.014Z,3.60
2023-03-13T05:49:15.986Z,3.10
2023-03-13T05:51:33.066Z,2.92
2023-03-13T05:53:50.131Z,3.20
2023-03-13T05:56:07.470Z,3.10
2023-03-13T05:58:24.692Z,2.60
2023-03-13T06:00:41.629Z,2.80
2023-03-13T06:02:58.541Z,2.88
2023-03-13T06:05:15.431Z,2.90
2023-03-13T06:07:32.686Z,2.40
2023-03-13T06:09:49.641Z,2.60
2023-03-13T06:12:06.646Z,2.50
2023-03-13T06:14:23.670Z,2.28
2023-03-13T06:16:40.892Z,2.40
2023-03-13T06:18:58.190Z,2.00
2023-03-13T06:21:15.092Z,2.42
2023-03-13T06:23:32.410Z,2.58
2023-03-13T06:25:49.681Z,2.50
2023-03-13T06:28:07.708Z,3.70
2023-03-13T06:30:24.724Z,3.97
2023-03-13T06:32:41.860Z,4.60
2023-03-13T06:34:58.928Z,21.67
2023-03-13T06:37:16.175Z,8.85
2023-03-13T06:39:33.165Z,4.05
2023-03-13T06:41:50.096Z,3.30
2023-03-13T06:44:07.299Z,2.90
2023-03-13T06:46:24.465Z,2.22
2023-03-13T06:48:42.352Z,3.42
2023-03-13T06:50:59.624Z,10.48
2023-03-13T06:53:16.564Z,4.88
2023-03-13T06:55:33.667Z,8.75
2023-03-13T06:57:50.829Z,6.63
2023-03-13T07:00:08.138Z,4.68
2023-03-13T07:02:25.046Z,10.52
2023-03-13T07:04:44.173Z,18.17
2023-03-13T07:07:02.070Z,16.15
2023-03-13T07:09:19.003Z,17.42
2023-03-13T07:11:36.868Z,5.38
2023-03-13T07:14:00.456Z,4.50
2023-03-13T07:16:27.068Z,3.55
2023-03-13T07:18:44.302Z,4.90
2023-03-13T07:21:01.218Z,5.40
2023-03-13T07:23:18.150Z,3.30
2023-03-13T07:25:35.164Z,7.85
2023-03-13T07:27:52.441Z,3.15
2023-03-13T07:30:09.533Z,4.50
2023-03-13T07:32:26.525Z,3.47
2023-03-13T07:34:43.531Z,2.72
2023-03-13T07:37:00.543Z,2.55
2023-03-13T07:39:17.602Z,2.17
2023-03-13T07:41:34.673Z,2.22
2023-03-13T07:43:51.972Z,2.13
2023-03-13T07:46:09.387Z,3.00
2023-03-13T07:48:26.456Z,4.05
2023-03-13T07:50:43.533Z,3.00
2023-03-13T07:53:00.751Z,2.53
2023-03-13T07:55:17.766Z,2.15
2023-03-13T07:57:35.693Z,2.25
2023-03-13T07:59:53.036Z,1.83
2023-03-13T08:02:10.134Z,2.25
2023-03-13T08:04:27.115Z,2.03
2023-03-13T08:06:45.109Z,2.40
2023-03-13T08:09:02.447Z,1.88
2023-03-13T08:11:19.451Z,2.00
2023-03-13T08:13:36.349Z,2.33
2023-03-13T08:15:53.385Z,2.22
2023-03-13T08:18:10.273Z,2.10
2023-03-13T08:20:27.285Z,2.22
2023-03-13T08:22:44.378Z,2.25
2023-03-13T08:25:02.280Z,4.25
2023-03-13T08:27:19.600Z,3.83
2023-03-13T08:29:36.636Z,3.88
2023-03-13T08:31:53.928Z,3.42
2023-03-13T08:34:11.296Z,3.42
2023-03-13T08:36:28.535Z,3.45
2023-03-13T08:38:46.449Z,2.85
2023-03-13T08:41:04.600Z,3.13
2023-03-13T08:43:21.687Z,3.17
2023-03-13T08:45:38.572Z,3.03
2023-03-13T08:47:55.623Z,3.17
2023-03-13T08:50:12.781Z,3.05
2023-03-13T08:52:29.819Z,2.72
2023-03-13T08:54:47.183Z,4.13
2023-03-13T08:57:04.464Z,3.30
2023-03-13T08:59:21.626Z,3.70
2023-03-13T09:01:39.514Z,4.10
2023-03-13T09:03:57.240Z,3.65
2023-03-13T09:06:14.506Z,3.85
2023-03-13T09:08:31.548Z,14.10
2023-03-13T09:10:48.601Z,4.38
2023-03-13T09:13:05.644Z,5.38
2023-03-13T09:15:22.716Z,2.45
2023-03-13T09:17:39.716Z,2.45
2023-03-13T09:20:00.657Z,2.70
2023-03-13T09:24:58.522Z,3.58
2023-03-13T09:27:15.439Z,2.60
2023-03-13T09:29:32.464Z,2.15
2023-03-13T09:31:49.417Z,2.33
2023-03-13T09:34:06.770Z,2.53
2023-03-13T09:36:23.880Z,2.45
2023-03-13T09:38:40.904Z,2.33
2023-03-13T09:41:05.942Z,2.78
2023-03-13T09:43:23.476Z,2.47
2023-03-13T09:45:40.374Z,2.70
2023-03-13T09:47:57.467Z,4.60
2023-03-13T09:50:14.481Z,6.05
2023-03-13T09:52:32.385Z,7.00
2023-03-13T09:54:49.335Z,4.93
2023-03-13T09:57:06.280Z,4.93
2023-03-13T09:59:23.361Z,4.75
2023-03-13T10:01:40.523Z,5.18
2023-03-13T10:03:57.651Z,6.75
2023-03-13T10:06:14.685Z,5.55
2023-03-13T10:08:31.969Z,6.88
2023-03-13T10:10:49.297Z,8.95
2023-03-13T10:13:06.219Z,7.75
2023-03-13T10:15:23.574Z,9.30
2023-03-13T10:17:42.623Z,8.63
2023-03-13T10:19:59.578Z,9.35
2023-03-13T10:22:16.590Z,13.10
2023-03-13T10:24:33.766Z,12.13
2023-03-13T10:26:50.725Z,16.70
2023-03-13T10:29:08.090Z,12.60
2023-03-13T10:31:25.403Z,7.55
2023-03-13T10:33:42.548Z,6.95
2023-03-13T10:36:00.598Z,6.20
2023-03-13T10:38:18.639Z,5.70
2023-03-13T10:40:35.879Z,6.78
2023-03-13T10:42:52.826Z,6.47
2023-03-13T10:45:10.049Z,5.75
2023-03-13T10:47:27.157Z,5.00
2023-03-13T10:49:44.205Z,5.15
2023-03-13T10:52:01.225Z,5.10
2023-03-13T10:54:18.220Z,6.20
2023-03-13T10:56:35.352Z,5.07
2023-03-13T10:58:52.441Z,5.20
2023-03-13T11:01:09.668Z,4.85
2023-03-13T11:03:26.716Z,8.45
2023-03-13T11:05:44.267Z,5.07
2023-03-13T11:08:01.551Z,4.80
2023-03-13T11:10:18.688Z,4.97
2023-03-13T11:12:35.759Z,4.90
2023-03-13T11:14:52.753Z,5.03
2023-03-13T11:17:09.668Z,4.75
2023-03-13T11:19:26.692Z,5.18
2023-03-13T11:21:43.983Z,5.25
2023-03-13T11:24:01.114Z,5.18
2023-03-13T11:26:18.033Z,4.70
2023-03-13T11:28:35.050Z,4.80
2023-03-13T11:30:51.940Z,7.03
2023-03-13T11:33:09.277Z,5.40
2023-03-13T11:35:27.590Z,8.93
2023-03-13T11:37:44.827Z,9.55
2023-03-13T11:40:02.120Z,8.32
2023-03-13T11:42:19.066Z,8.25
2023-03-13T11:44:36.037Z,7.47
2023-03-13T11:46:53.017Z,13.88
2023-03-13T11:49:10.124Z,14.80
2023-03-13T11:51:27.248Z,18.00
2023-03-13T11:53:44.300Z,13.15
2023-03-13T11:56:01.596Z,8.02
2023-03-13T11:58:18.822Z,5.90
2023-03-13T12:00:35.836Z,4.82
2023-03-13T12:02:53.114Z,5.40
2023-03-13T12:05:10.371Z,4.90
2023-03-13T12:07:27.340Z,5.20
2023-03-13T12:09:44.752Z,5.43
2023-03-13T12:12:01.668Z,6.68
2023-03-13T12:14:19.859Z,5.60
2023-03-13T12:16:37.218Z,5.00
2023-03-13T12:18:57.326Z,5.82
2023-03-13T12:21:14.557Z,5.45
2023-03-13T12:23:31.842Z,5.40
2023-03-13T12:25:49.119Z,4.35
2023-03-13T12:28:07.583Z,4.28
2023-03-13T12:30:25.906Z,4.60
2023-03-13T12:32:42.890Z,4.47
2023-03-13T12:35:00.832Z,4.20
2023-03-13T12:37:17.775Z,4.03
2023-03-13T12:39:34.837Z,3.72
2023-03-13T12:41:52.732Z,4.03
2023-03-13T12:44:09.852Z,3.53
2023-03-13T12:46:27.166Z,3.60
2023-03-13T12:48:44.261Z,3.42
2023-03-13T12:51:01.170Z,3.38
2023-03-13T12:53:20.832Z,3.65
2023-03-13T12:55:38.010Z,3.50
2023-03-13T12:57:55.457Z,6.50
2023-03-13T13:00:12.776Z,4.78
2023-03-13T13:02:30.026Z,3.30
2023-03-13T13:04:48.269Z,2.83
2023-03-13T13:07:05.271Z,3.22
2023-03-13T13:09:22.522Z,2.75
2023-03-13T13:11:39.813Z,3.05
2023-03-13T13:13:57.347Z,3.10
2023-03-13T13:16:14.603Z,2.78
2023-03-13T13:18:31.676Z,2.92
2023-03-13T13:20:49.674Z,3.42
2023-03-13T13:23:06.796Z,5.05
2023-03-13T13:25:24.029Z,5.28
2023-03-13T13:27:40.969Z,5.65
2023-03-13T13:29:57.968Z,3.67
2023-03-13T13:32:14.937Z,3.72
2023-03-13T13:34:32.009Z,3.08
2023-03-13T13:36:49.110Z,2.50
2023-03-13T13:39:06.056Z,3.92
2023-03-13T13:41:23.054Z,6.43
2023-03-13T13:43:39.978Z,3.08
2023-03-13T13:45:57.487Z,2.30
2023-03-13T13:48:14.615Z,2.95
2023-03-13T13:50:31.746Z,2.33
2023-03-13T13:52:48.727Z,2.40
2023-03-13T13:55:06.985Z,3.10
2023-03-13T13:57:24.317Z,3.92
2023-03-13T13:59:41.626Z,3.17
2023-03-13T14:01:58.696Z,4.13
2023-03-13T14:04:16.672Z,3.10
2023-03-13T14:06:33.950Z,2.38
2023-03-13T14:08:51.281Z,1.90
2023-03-13T14:11:08.298Z,2.40
2023-03-13T14:13:25.305Z,2.53
2023-03-13T14:15:42.194Z,2.08
2023-03-13T14:17:59.214Z,2.20
2023-03-13T14:20:16.158Z,1.63
2023-03-13T14:22:33.420Z,0.95
2023-03-13T14:24:50.691Z,0.90
2023-03-13T14:27:07.636Z,1.40
2023-03-13T14:29:24.675Z,1.15
2023-03-13T14:31:41.804Z,0.85
2023-03-13T14:33:59.896Z,1.02
2023-03-13T14:36:16.804Z,1.08
2023-03-13T14:38:33.769Z,1.10
2023-03-13T14:40:51.132Z,1.20
2023-03-13T14:43:08.091Z,0.90
2023-03-13T14:45:25.365Z,1.10
2023-03-13T14:47:42.657Z,1.60
2023-03-13T14:49:59.733Z,1.60
2023-03-13T14:52:17.112Z,1.20
2023-03-13T14:54:34.350Z,1.30
2023-03-13T14:56:51.615Z,1.35
2023-03-13T14:59:08.589Z,1.40
2023-03-13T15:01:25.639Z,1.40
2023-03-13T15:03:42.634Z,1.05
2023-03-13T15:05:59.628Z,1.23
2023-03-13T15:08:16.507Z,1.20
2023-03-13T15:10:33.869Z,1.20
2023-03-13T15:12:51.173Z,1.33
2023-03-13T15:15:08.072Z,1.10
2023-03-13T15:17:25.410Z,1.23
2023-03-13T15:19:42.447Z,1.30
2023-03-13T15:21:59.428Z,1.30
2023-03-13T15:24:16.476Z,1.10
2023-03-13T15:26:33.370Z,1.50
2023-03-13T15:28:50.236Z,1.30
2023-03-13T15:31:07.241Z,1.20
2023-03-13T15:33:24.289Z,2.72
2023-03-13T15:35:41.357Z,2.00
2023-03-13T15:37:58.419Z,1.90
2023-03-13T15:40:15.386Z,1.20
2023-03-13T15:42:32.299Z,1.40
2023-03-13T15:44:49.514Z,1.17
2023-03-13T15:47:06.825Z,1.23
2023-03-13T15:49:24.119Z,0.90
2023-03-13T15:51:41.376Z,1.27
2023-03-13T15:53:58.424Z,1.55
2023-03-13T15:56:15.695Z,1.30
2023-03-13T15:58:32.784Z,1.20
2023-03-13T16:00:49.827Z,1.20
2023-03-13T16:03:07.230Z,1.30
2023-03-13T16:05:24.126Z,1.10
2023-03-13T16:07:41.477Z,1.35
2023-03-13T16:09:58.685Z,1.30
2023-03-13T16:12:15.728Z,1.10
2023-03-13T16:14:32.719Z,1.27
2023-03-13T16:16:50.134Z,1.17
2023-03-13T16:19:07.548Z,1.35
2023-03-13T16:21:24.911Z,1.25
2023-03-13T16:23:41.785Z,1.15
2023-03-13T16:25:58.816Z,2.03
2023-03-13T16:28:16.030Z,1.85
2023-03-13T16:30:32.963Z,1.60
2023-03-13T16:32:51.101Z,1.58
2023-03-13T16:35:08.116Z,1.70
2023-03-13T16:37:25.184Z,1.73
2023-03-13T16:39:42.230Z,1.55
2023-03-13T16:41:59.578Z,1.40
2023-03-13T16:44:16.481Z,1.40
2023-03-13T16:46:33.490Z,1.60
2023-03-13T16:48:50.512Z,1.70
2023-03-13T16:51:07.518Z,1.90
2023-03-13T16:53:24.483Z,1.40
2023-03-13T16:55:41.420Z,1.75
2023-03-13T16:57:58.508Z,1.60
2023-03-13T17:00:15.502Z,1.55
2023-03-13T17:02:32.659Z,2.20
2023-03-13T17:04:50.016Z,1.90
2023-03-13T17:07:07.375Z,2.17
2023-03-13T17:09:24.654Z,2.10
2023-03-13T17:11:41.974Z,2.47
2023-03-13T17:13:59.021Z,2.35
2023-03-13T17:16:16.089Z,2.38
2023-03-13T17:18:32.994Z,2.30
2023-03-13T17:20:50.349Z,2.20
2023-03-13T17:23:07.367Z,2.10
2023-03-13T17:25:24.397Z,9.40
2023-03-13T17:27:41.644Z,8.43
2023-03-13T17:29:58.614Z,5.78
2023-03-13T17:32:15.438Z,6.10
2023-03-13T17:34:33.453Z,6.30
2023-03-13T17:36:50.812Z,5.10
2023-03-13T17:39:07.948Z,4.70
2023-03-13T17:41:25.207Z,4.80
2023-03-13T17:43:42.123Z,3.20
2023-03-13T17:45:59.049Z,3.53
2023-03-13T17:48:16.141Z,2.90
2023-03-13T17:50:33.080Z,3.28
2023-03-13T17:52:50.059Z,2.90
2023-03-13T17:55:07.398Z,2.80
2023-03-13T17:57:24.352Z,3.25
2023-03-13T17:59:41.262Z,3.15
2023-03-13T18:01:58.265Z,3.08
2023-03-13T18:04:15.657Z,3.03
2023-03-13T18:06:32.782Z,2.50
2023-03-13T18:08:49.819Z,2.20
2023-03-13T18:11:06.871Z,2.38
2023-03-13T18:13:23.941Z,1.77
2023-03-13T18:15:41.318Z,1.33
2023-03-13T18:17:58.550Z,1.00
2023-03-13T18:20:15.797Z,0.90
2023-03-13T18:22:33.051Z,0.90
2023-03-13T18:24:50.330Z,1.00
2023-03-13T18:27:07.250Z,0.80
2023-03-13T18:29:24.516Z,1.00
2023-03-13T18:31:41.455Z,1.00
2023-03-13T18:33:58.794Z,1.00
2023-03-13T18:36:16.158Z,1.00
2023-03-13T18:38:33.361Z,0.70
2023-03-13T18:40:50.262Z,0.60
2023-03-13T18:43:07.286Z,0.80
2023-03-13T18:45:24.225Z,0.80
2023-03-13T18:47:41.262Z,0.90
2023-03-13T18:49:58.161Z,0.63
2023-03-13T18:52:15.061Z,0.52
2023-03-13T18:54:32.137Z,0.70
2023-03-13T18:56:49.414Z,0.70
2023-03-13T18:59:06.488Z,0.50
2023-03-13T19:01:23.550Z,0.60
2023-03-13T19:03:40.639Z,0.80
2023-03-13T19:05:57.556Z,0.70
2023-03-13T19:08:14.584Z,0.80
2023-03-13T19:10:31.903Z,0.68
2023-03-13T19:12:48.953Z,0.82
2023-03-13T19:15:05.825Z,0.85
2023-03-13T19:17:22.748Z,0.88
2023-03-13T19:19:40.098Z,0.77
2023-03-13T19:21:57.300Z,0.95
2023-03-13T19:24:14.212Z,0.95
2023-03-13T19:26:31.578Z,1.42
2023-03-13T19:28:48.574Z,1.55
2023-03-13T19:31:05.504Z,1.85
2023-03-13T19:33:22.765Z,2.10
2023-03-13T19:35:39.696Z,1.60
2023-03-13T19:37:56.732Z,1.35
2023-03-13T19:40:13.616Z,1.20
2023-03-13T19:42:30.629Z,1.25
2023-03-13T19:44:47.847Z,1.27
2023-03-13T19:47:04.825Z,1.15
2023-03-13T19:49:21.777Z,0.98
2023-03-13T19:51:39.065Z,1.17
2023-03-13T19:53:56.115Z,1.00
2023-03-13T19:56:13.303Z,1.13
2023-03-13T19:58:30.298Z,1.30
2023-03-13T20:00:47.305Z,1.10
2023-03-13T20:03:04.623Z,1.10
2023-03-13T20:05:21.746Z,0.77
2023-03-13T20:07:39.651Z,0.93
2023-03-13T20:09:56.576Z,0.90
2023-03-13T20:12:13.873Z,0.90
2023-03-13T20:14:31.184Z,1.00
2023-03-13T20:16:49.242Z,0.80
2023-03-13T20:19:06.157Z,1.25
2023-03-13T20:21:23.224Z,0.80
2023-03-13T20:23:40.129Z,0.90
2023-03-13T20:25:57.380Z,0.77
2023-03-13T20:28:14.310Z,1.00
2023-03-13T20:30:32.233Z,0.70
2023-03-13T20:32:59.336Z,1.00
2023-03-13T20:35:17.012Z,1.00
2023-03-13T20:37:34.133Z,0.98
2023-03-13T20:39:51.111Z,1.00
2023-03-13T20:42:08.124Z,0.95
2023-03-13T20:44:25.018Z,0.93
2023-03-13T20:46:42.295Z,1.05
2023-03-13T20:48:59.227Z,1.10
2023-03-13T20:51:17.232Z,1.13
2023-03-13T20:53:34.474Z,0.98
2023-03-13T20:55:51.740Z,1.05
2023-03-13T20:58:08.648Z,0.90
2023-03-13T21:00:25.598Z,1.00
2023-03-13T21:02:42.919Z,1.00
2023-03-13T21:05:00.103Z,1.08
2023-03-13T21:07:17.214Z,1.10
2023-03-13T21:09:34.294Z,1.10
2023-03-13T21:11:51.227Z,0.95
2023-03-13T21:14:08.176Z,1.10
2023-03-13T21:16:25.154Z,1.23
2023-03-13T21:18:42.448Z,1.60
2023-03-13T21:20:59.696Z,1.88
2023-03-13T21:23:16.690Z,1.55
2023-03-13T21:25:33.950Z,1.48
2023-03-13T21:27:50.928Z,1.48
2023-03-13T21:30:07.851Z,2.78
2023-03-13T21:32:24.875Z,3.10
2023-03-13T21:34:41.927Z,3.50
2023-03-13T21:36:58.805Z,3.00
2023-03-13T21:39:15.846Z,2.60
2023-03-13T21:41:32.719Z,1.80
2023-03-13T21:43:49.712Z,1.65
2023-03-13T21:46:06.806Z,1.52
2023-03-13T21:48:24.086Z,1.23
2023-03-13T21:50:42.103Z,1.38
2023-03-13T21:52:59.045Z,1.45
2023-03-13T21:55:16.084Z,1.50
2023-03-13T21:57:33.109Z,1.50
2023-03-13T21:59:50.104Z,1.52
2023-03-13T22:02:07.000Z,1.60
2023-03-13T22:04:23.926Z,1.50
2023-03-13T22:06:41.139Z,1.70
2023-03-13T22:08:58.183Z,1.83
2023-03-13T22:11:15.461Z,1.80
2023-03-13T22:13:32.411Z,1.70
2023-03-13T22:15:49.296Z,1.90
2023-03-13T22:18:06.209Z,1.83
2023-03-13T22:20:23.208Z,1.70
2023-03-13T22:22:40.481Z,1.90
2023-03-13T22:24:57.546Z,2.13
2023-03-13T22:27:14.444Z,1.92
2023-03-13T22:29:31.677Z,2.10
2023-03-13T22:31:48.732Z,2.42
2023-03-13T22:34:05.816Z,1.90
2023-03-13T22:36:23.781Z,2.17
2023-03-13T22:38:40.671Z,2.15
2023-03-13T22:40:57.756Z,1.90
2023-03-13T22:43:14.780Z,1.88
2023-03-13T22:45:32.786Z,2.10
2023-03-13T22:47:50.067Z,2.03
2023-03-13T22:50:07.134Z,1.90
2023-03-13T22:52:24.351Z,1.80
2023-03-13T22:54:41.263Z,1.55
2023-03-13T22:56:58.304Z,1.88
2023-03-13T22:59:15.265Z,1.98
2023-03-13T23:01:32.375Z,2.00
2023-03-13T23:03:49.244Z,1.92
2023-03-13T23:06:06.080Z,1.98
2023-03-13T23:08:23.328Z,2.03
2023-03-13T23:10:40.246Z,2.25
2023-03-13T23:12:57.540Z,2.17
2023-03-13T23:15:14.567Z,2.22
2023-03-13T23:17:31.832Z,2.20
2023-03-13T23:19:48.761Z,2.65
2023-03-13T23:22:06.072Z,2.15
2023-03-13T23:24:22.999Z,2.30
2023-03-13T23:26:40.332Z,2.35
2023-03-13T23:28:57.408Z,2.22
2023-03-13T23:31:15.418Z,2.45
2023-03-13T23:33:32.285Z,2.90
2023-03-13T23:35:50.603Z,2.50
2023-03-13T23:38:07.778Z,3.17
2023-03-13T23:40:24.768Z,2.85
2023-03-13T23:42:41.765Z,2.88
2023-03-13T23:44:59.044Z,2.58
2023-03-13T23:47:16.036Z,2.58
2023-03-13T23:49:33.037Z,2.47
2023-03-13T23:51:50.341Z,2.58
2023-03-13T23:54:07.297Z,3.22
2023-03-13T23:56:24.167Z,2.75
2023-03-13T23:58:41.136Z,3.03
